Time;durP1;ratioP1;P1;durP2;ratioP2;P2;SDS_P1;SDS_P2;PMS_P1;PMS_P2;Temp;Humidity;BMP_temperature;BMP_pressure;BME280_temperature;BME280_humidity;BME280_pressure;Samples;Min_cycle;Max_cycle;Signal;HPM_P1;HPM_P2
2022/12/27 00:00:21;;;;;;;1.30;1.15;;;;;;;20.94;35.72;101762.72;5077011;28;20040;-61
2022/12/27 00:02:47;;;;;;;1.67;1.27;;;;;;;20.93;35.85;101763.72;5072263;28;20035;-61
2022/12/27 00:05:14;;;;;;;2.55;1.63;;;;;;;20.94;35.74;101764.56;5074552;28;20042;-61
2022/12/27 00:07:40;;;;;;;2.47;1.52;;;;;;;20.88;35.94;101760.75;5077521;28;20040;-61
2022/12/27 00:10:07;;;;;;;2.22;1.33;;;;;;;20.90;35.93;101766.72;5076220;28;20039;-61
2022/12/27 00:12:32;;;;;;;1.40;1.05;;;;;;;20.90;35.84;101764.06;5072027;28;20125;-61
2022/12/27 00:14:58;;;;;;;3.20;1.38;;;;;;;20.83;36.19;101768.38;5075290;28;20032;-61
2022/12/27 00:17:24;;;;;;;2.53;1.27;;;;;;;20.86;35.84;101767.22;5076354;28;20036;-61
2022/12/27 00:19:49;;;;;;;2.05;1.30;;;;;;;20.88;35.75;101758.09;5075698;28;20032;-61
2022/12/27 00:22:15;;;;;;;2.17;1.38;;;;;;;20.82;36.05;101756.09;5077486;28;20036;-61
2022/12/27 00:24:40;;;;;;;2.90;1.48;;;;;;;20.83;35.84;101757.78;5075100;28;20580;-61
2022/12/27 00:27:06;;;;;;;1.15;1.02;;;;;;;20.85;35.73;101766.38;5075974;28;20043;-61
2022/12/27 00:29:31;;;;;;;1.90;1.15;;;;;;;20.89;35.87;101764.22;5076864;28;20040;-61
2022/12/27 00:31:57;;;;;;;1.92;1.08;;;;;;;20.85;36.06;101760.25;5068146;28;20036;-61
2022/12/27 00:34:23;;;;;;;2.40;0.93;;;;;;;20.81;36.11;101767.69;5074887;28;20154;-61
2022/12/27 00:36:48;;;;;;;1.42;1.10;;;;;;;20.85;36.13;101757.63;5073212;28;20542;-61
2022/12/27 00:39:14;;;;;;;2.72;1.30;;;;;;;20.94;35.76;101762.72;5073510;28;20043;-61
2022/12/27 00:41:39;;;;;;;3.30;1.55;;;;;;;21.15;35.73;101766.72;5075225;28;20036;-61
2022/12/27 00:44:05;;;;;;;2.33;1.38;;;;;;;21.30;35.28;101771.22;5075345;28;20110;-61
2022/12/27 00:46:30;;;;;;;1.90;1.40;;;;;;;21.32;35.05;101771.03;5074915;28;20036;-61
2022/12/27 00:48:57;;;;;;;2.30;1.30;;;;;;;21.33;35.09;101764.75;5069149;28;20032;-60
2022/12/27 00:51:24;;;;;;;2.17;1.42;;;;;;;21.32;35.05;101769.22;5070551;28;20086;-61
2022/12/27 00:53:51;;;;;;;1.80;1.30;;;;;;;21.28;35.18;101773.22;5071266;28;20749;-61
2022/12/27 00:56:24;;;;;;;1.70;1.23;;;;;;;21.16;35.59;101766.53;5075500;28;20622;-61
2022/12/27 00:58:58;;;;;;;2.22;1.45;;;;;;;21.15;35.37;101770.19;5068246;28;20244;-61
2022/12/27 01:01:26;;;;;;;1.65;1.05;;;;;;;21.12;35.70;101771.34;5072195;28;20116;-61
2022/12/27 01:03:52;;;;;;;1.45;1.00;;;;;;;21.13;35.52;101778.31;5071512;28;20024;-61
2022/12/27 01:06:20;;;;;;;2.38;1.30;;;;;;;21.13;35.67;101773.00;5073987;28;20044;-61
2022/12/27 01:08:47;;;;;;;1.88;1.38;;;;;;;21.13;35.68;101788.06;5071576;28;21059;-61
2022/12/27 01:11:15;;;;;;;4.13;1.80;;;;;;;21.12;35.54;101781.94;5069074;28;20036;-61
2022/12/27 01:13:41;;;;;;;1.40;1.10;;;;;;;21.10;35.76;101777.81;5070561;28;20626;-61
2022/12/27 01:16:16;;;;;;;2.72;1.30;;;;;;;21.05;35.81;101780.13;5068073;28;20145;-61
2022/12/27 01:18:42;;;;;;;1.90;1.00;;;;;;;21.04;35.73;101776.66;5071149;28;20037;-61
2022/12/27 01:21:11;;;;;;;2.50;1.02;;;;;;;21.02;35.82;101780.47;5070177;28;20032;-61
2022/12/27 01:23:37;;;;;;;2.60;1.48;;;;;;;21.01;35.88;101792.06;5067914;28;20051;-61
2022/12/27 01:26:06;;;;;;;2.60;1.20;;;;;;;21.03;35.71;101790.91;5065906;28;20043;-61
2022/12/27 01:28:32;;;;;;;2.38;1.58;;;;;;;20.98;35.82;101795.00;5073904;28;20044;-61
2022/12/27 01:31:02;;;;;;;2.85;1.40;;;;;;;20.96;35.64;101803.13;5075192;28;20078;-61
2022/12/27 01:33:28;;;;;;;2.28;1.27;;;;;;;20.87;35.82;101780.28;5075664;28;20054;-61
2022/12/27 01:35:53;;;;;;;1.50;1.40;;;;;;;20.98;35.72;101802.94;5072502;28;20040;-61
2022/12/27 01:38:19;;;;;;;1.33;0.90;;;;;;;20.95;35.63;101816.53;5071347;28;20049;-59
2022/12/27 01:40:44;;;;;;;1.70;1.35;;;;;;;20.97;35.80;101812.72;5073639;28;20052;-59
2022/12/27 01:43:17;;;;;;;2.35;1.40;;;;;;;20.90;35.95;101821.47;5072042;28;20036;-59
2022/12/27 01:45:45;;;;;;;2.50;1.17;;;;;;;20.96;35.72;101834.06;5074837;28;20143;-59
2022/12/27 01:48:16;;;;;;;2.20;1.20;;;;;;;20.90;35.89;101821.47;5073293;28;20032;-60
2022/12/27 01:50:51;;;;;;;1.80;1.23;;;;;;;20.91;35.61;101842.50;5073331;28;20071;-59
2022/12/27 01:53:27;;;;;;;1.35;1.05;;;;;;;20.83;36.03;101846.97;5073868;28;20039;-59
2022/12/27 01:55:58;;;;;;;2.63;1.33;;;;;;;20.86;35.76;101866.00;5071418;28;20032;-59
2022/12/27 01:58:29;;;;;;;2.60;1.13;;;;;;;20.80;36.10;101840.97;5071034;28;20078;-59
2022/12/27 02:00:55;;;;;;;1.83;1.30;;;;;;;20.87;35.76;101846.47;5066700;28;20317;-59
2022/12/27 02:03:38;;;;;;;1.23;0.93;;;;;;;20.87;35.77;101846.47;5067883;28;20038;-59
2022/12/27 02:06:07;;;;;;;1.75;1.15;;;;;;;20.89;35.79;101846.31;5071758;28;20050;-59
2022/12/27 02:08:44;;;;;;;2.15;1.05;;;;;;;20.88;35.90;101852.59;5062364;28;20031;-59
2022/12/27 02:11:11;;;;;;;2.47;1.30;;;;;;;20.79;35.74;101843.78;5072683;28;20054;-59
2022/12/27 02:13:42;;;;;;;1.45;1.10;;;;;;;20.79;35.93;101849.91;5066576;28;20568;-59
2022/12/27 02:16:14;;;;;;;4.28;1.15;;;;;;;20.82;35.84;101862.00;5065410;28;20407;-59
2022/12/27 02:18:40;;;;;;;2.72;1.33;;;;;;;20.84;35.90;101857.38;5067015;28;20044;-59
2022/12/27 02:21:33;;;;;;;2.17;1.13;;;;;;;20.85;35.71;101864.34;5067998;28;20117;-59
2022/12/27 02:24:37;;;;;;;2.83;1.20;;;;;;;20.85;35.78;101861.69;5070471;28;20043;-59
2022/12/27 02:27:26;;;;;;;1.98;1.50;;;;;;;20.87;35.53;101862.34;5066064;28;20040;-59
2022/12/27 02:30:00;;;;;;;2.90;1.33;;;;;;;21.15;35.39;101859.41;5068960;28;20036;-59
2022/12/27 02:32:51;;;;;;;1.48;1.10;;;;;;;21.27;34.98;101860.78;5070946;28;20558;-59
2022/12/27 02:35:34;;;;;;;2.47;1.10;;;;;;;21.23;35.27;101864.75;5067443;28;20040;-59
2022/12/27 02:38:23;;;;;;;2.95;1.23;;;;;;;21.17;35.14;101860.91;5064795;28;20048;-59
2022/12/27 02:55:26;;;;;;;1.90;0.90;;;;;;;21.03;35.59;101866.84;5069544;28;20055;-59
2022/12/27 02:58:04;;;;;;;1.75;1.10;;;;;;;21.00;35.70;101878.59;5070207;28;20059;-59
2022/12/27 03:03:42;;;;;;;0.95;0.80;;;;;;;20.95;35.81;101883.53;5051255;28;20170;-59
2022/12/27 03:09:12;;;;;;;1.27;0.90;;;;;;;20.95;35.73;101896.78;5072609;28;20039;-59
2022/12/27 03:17:59;;;;;;;2.53;1.30;;;;;;;20.94;35.95;101865.16;5065802;28;20153;-59
2022/12/27 03:25:57;;;;;;;1.73;1.15;;;;;;;20.86;35.73;101870.47;5071732;28;20034;-59
2022/12/27 03:34:37;;;;;;;1.23;1.08;;;;;;;20.94;35.61;101884.53;5079412;28;20043;-59
2022/12/27 03:40:00;;;;;;;2.03;0.88;;;;;;;20.91;35.72;101894.63;5074743;28;20705;-59
2022/12/27 03:45:14;;;;;;;1.83;0.90;;;;;;;20.92;35.75;101890.97;5069807;28;20043;-59
2022/12/27 03:48:03;;;;;;;1.52;0.90;;;;;;;20.91;35.74;101891.97;5069342;28;20036;-59
2022/12/27 03:50:35;;;;;;;1.70;1.23;;;;;;;20.90;35.68;101888.50;5073396;28;20660;-59
2022/12/27 03:53:10;;;;;;;2.38;1.00;;;;;;;20.92;35.70;101886.53;5069958;28;20470;-59
2022/12/27 03:55:36;;;;;;;1.63;0.80;;;;;;;20.90;35.72;101898.25;5074200;28;20680;-59
2022/12/27 03:58:02;;;;;;;2.13;1.20;;;;;;;20.86;35.71;101910.16;5071194;28;20041;-59
2022/12/27 04:00:28;;;;;;;1.35;0.85;;;;;;;20.85;35.88;101917.28;5076100;28;20044;-59
2022/12/27 04:02:54;;;;;;;2.33;1.20;;;;;;;20.83;35.91;101913.97;5068894;28;20051;-59
2022/12/27 04:05:19;;;;;;;1.98;1.35;;;;;;;20.84;35.68;101939.47;5071252;28;20055;-59
2022/12/27 04:35:08;;;;;;;1.17;0.85;;;;;;;21.12;35.44;101956.75;5067610;28;20406;-59
2022/12/27 04:37:33;;;;;;;1.20;0.73;;;;;;;21.04;35.41;101950.59;5070642;28;20055;-59
2022/12/27 04:56:28;;;;;;;0.75;0.60;;;;;;;20.88;35.47;101954.03;5072342;28;20096;-59
2022/12/27 05:04:23;;;;;;;1.38;0.88;;;;;;;20.89;35.61;101966.28;5072821;28;20055;-59
2022/12/27 05:06:49;;;;;;;2.30;1.23;;;;;;;20.92;35.62;101967.78;5069274;28;20065;-59
2022/12/27 05:14:43;;;;;;;0.95;0.50;;;;;;;20.84;35.74;101973.03;5071649;28;20564;-59
2022/12/27 05:17:09;;;;;;;0.85;0.60;;;;;;;20.86;35.67;101979.84;5070947;28;20032;-59
2022/12/27 05:19:34;;;;;;;1.33;0.90;;;;;;;20.82;35.86;101999.66;5065943;28;20048;-59
2022/12/27 05:27:28;;;;;;;1.77;0.77;;;;;;;20.78;35.68;101993.00;5090251;27;20592;-59
2022/12/27 05:29:54;;;;;;;1.08;0.77;;;;;;;20.78;35.70;101995.66;5071221;28;20055;-59
2022/12/27 05:32:19;;;;;;;1.17;0.55;;;;;;;20.79;35.82;101997.31;5073421;28;20133;-59
2022/12/27 05:34:45;;;;;;;1.63;0.90;;;;;;;20.75;36.02;102007.41;5067275;28;20164;-59
2022/12/27 05:37:10;;;;;;;1.40;0.95;;;;;;;20.72;35.81;101994.47;5069780;28;20501;-59
2022/12/27 05:39:36;;;;;;;1.05;0.88;;;;;;;20.72;35.84;102012.19;5071362;28;20492;-59
2022/12/27 05:42:02;;;;;;;1.83;0.77;;;;;;;20.70;35.70;102007.06;5070343;28;20040;-59
2022/12/27 05:44:28;;;;;;;1.75;0.85;;;;;;;20.74;35.95;102007.56;5062716;28;20192;-59
2022/12/27 05:46:54;;;;;;;0.82;0.63;;;;;;;20.79;35.69;102021.16;5070687;28;20040;-59
2022/12/27 05:49:20;;;;;;;0.90;0.70;;;;;;;20.99;35.30;102017.28;5068455;28;20038;-59
2022/12/27 05:51:46;;;;;;;1.98;0.75;;;;;;;21.29;34.95;102020.41;5067621;28;20032;-59
2022/12/27 05:54:11;;;;;;;0.77;0.40;;;;;;;21.44;34.65;102023.28;5071085;28;20039;-59
2022/12/27 05:56:37;;;;;;;1.70;0.73;;;;;;;21.42;34.90;102034.03;5069510;28;20123;-59
2022/12/27 05:59:03;;;;;;;1.80;0.98;;;;;;;21.36;34.96;102022.28;5069386;28;20101;-59
2022/12/27 06:01:29;;;;;;;1.35;0.82;;;;;;;21.32;34.76;102020.91;5070645;28;20032;-59
2022/12/27 06:03:55;;;;;;;1.67;0.80;;;;;;;21.28;35.15;102024.06;5074280;28;20517;-59
2022/12/27 06:06:20;;;;;;;0.80;0.77;;;;;;;21.24;35.01;102028.84;5074565;28;20040;-59
2022/12/27 06:08:46;;;;;;;1.63;0.82;;;;;;;21.16;35.33;102022.63;5074333;28;20032;-59
2022/12/27 06:11:14;;;;;;;2.15;0.88;;;;;;;21.17;35.24;102022.47;5070999;28;20040;-59
2022/12/27 06:13:41;;;;;;;2.20;0.90;;;;;;;21.14;35.07;102030.75;5069373;28;20043;-59
2022/12/27 06:16:09;;;;;;;0.60;0.60;;;;;;;21.02;35.31;102027.56;5068573;28;20051;-59
2022/12/27 06:18:36;;;;;;;2.20;1.50;;;;;;;21.06;35.50;102034.22;5072323;28;20105;-59
2022/12/27 06:21:05;;;;;;;1.70;0.93;;;;;;;21.00;35.44;102031.34;5069630;28;20991;-59
2022/12/27 06:23:32;;;;;;;1.00;0.70;;;;;;;20.95;35.65;102038.94;5068814;28;20020;-59
2022/12/27 06:25:57;;;;;;;0.95;0.60;;;;;;;20.92;35.64;102045.38;5070661;28;20043;-59
2022/12/27 06:28:23;;;;;;;1.20;0.70;;;;;;;20.92;35.38;102045.38;5067639;28;20039;-59
2022/12/27 06:30:49;;;;;;;1.63;1.27;;;;;;;20.88;35.63;102038.75;5071678;28;20201;-59
2022/12/27 06:33:15;;;;;;;0.77;0.70;;;;;;;20.93;35.56;102044.41;5069120;28;20051;-59
2022/12/27 06:35:41;;;;;;;0.98;0.80;;;;;;;20.92;35.45;102055.97;5069930;28;20047;-59
2022/12/27 06:38:06;;;;;;;0.77;0.65;;;;;;;20.91;35.53;102061.44;5069415;28;20059;-59
2022/12/27 06:40:32;;;;;;;1.52;0.80;;;;;;;20.88;35.47;102052.00;5069085;28;20033;-59
2022/12/27 06:42:57;;;;;;;1.60;0.88;;;;;;;20.89;35.61;102064.25;5070597;28;20089;-59
2022/12/27 06:45:23;;;;;;;1.33;0.85;;;;;;;20.89;35.53;102066.06;5071140;28;20986;-59
2022/12/27 06:47:48;;;;;;;1.95;1.17;;;;;;;20.90;35.58;102070.38;5068126;28;20551;-59
2022/12/27 06:50:14;;;;;;;0.85;0.82;;;;;;;20.89;35.45;102061.59;5068919;28;20032;-59
2022/12/27 06:52:39;;;;;;;1.55;0.80;;;;;;;20.86;35.86;102077.78;5066043;28;20040;-59
2022/12/27 06:55:05;;;;;;;0.80;0.50;;;;;;;20.81;35.48;102078.25;5070068;28;20044;-59
2022/12/27 06:57:30;;;;;;;1.13;0.73;;;;;;;20.80;35.87;102087.16;5067578;28;20059;-59
2022/12/27 06:59:56;;;;;;;1.23;0.88;;;;;;;20.82;35.67;102092.31;5068212;28;20043;-59
2022/12/27 07:02:21;;;;;;;1.13;0.70;;;;;;;20.81;35.85;102093.28;5068470;28;20445;-59
2022/12/27 07:04:47;;;;;;;1.63;0.95;;;;;;;20.78;35.75;102093.59;5068345;28;20551;-59
2022/12/27 07:07:12;;;;;;;1.50;0.50;;;;;;;20.76;35.89;102087.66;5070382;28;20040;-59
2022/12/27 07:09:38;;;;;;;0.98;0.52;;;;;;;20.79;35.70;102104.03;5071886;28;20040;-59
2022/12/27 07:12:04;;;;;;;1.77;0.88;;;;;;;20.78;35.92;102102.38;5070226;28;20044;-59
2022/12/27 07:14:29;;;;;;;2.53;0.98;;;;;;;20.72;35.85;102110.94;5069530;28;20106;-59
2022/12/27 07:16:55;;;;;;;1.75;1.08;;;;;;;20.71;35.94;102122.53;5071249;28;20032;-59
2022/12/27 07:19:21;;;;;;;2.60;1.00;;;;;;;20.78;35.68;102128.84;5070059;28;20036;-59
2022/12/27 07:21:47;;;;;;;1.20;0.95;;;;;;;20.80;35.78;102118.94;5070487;28;20063;-59
2022/12/27 07:24:12;;;;;;;2.70;1.05;;;;;;;21.05;35.36;102124.41;5069373;28;20032;-59
2022/12/27 07:26:38;;;;;;;0.77;0.60;;;;;;;21.51;34.70;102132.94;5071073;28;20394;-59
2022/12/27 07:29:03;;;;;;;1.10;0.60;;;;;;;21.93;34.17;102135.59;5075053;28;20800;-59
2022/12/27 07:31:31;;;;;;;1.05;0.55;;;;;;;22.04;33.88;102135.25;5073025;28;20035;-59
2022/12/27 07:33:59;;;;;;;2.22;1.13;;;;;;;21.97;33.97;102134.25;5068994;28;20040;-59
2022/12/27 07:36:28;;;;;;;1.20;0.65;;;;;;;21.84;34.33;102136.53;5067064;28;20040;-59
2022/12/27 07:38:54;;;;;;;1.20;0.75;;;;;;;21.78;34.37;102147.81;5069570;28;20047;-59
2022/12/27 07:41:20;;;;;;;0.85;0.68;;;;;;;21.66;34.45;102145.44;5089609;28;20032;-59
2022/12/27 07:43:45;;;;;;;1.55;0.98;;;;;;;21.52;34.67;102132.78;5071205;28;20044;-59
2022/12/27 07:46:14;;;;;;;1.48;0.88;;;;;;;21.54;34.99;102157.31;5067427;28;20101;-59
2022/12/27 07:48:41;;;;;;;2.58;1.00;;;;;;;21.53;34.87;102160.13;5068835;28;20040;-59
2022/12/27 07:51:07;;;;;;;1.58;0.82;;;;;;;21.45;35.29;102160.91;5073001;28;20050;-59
2022/12/27 07:53:33;;;;;;;1.05;0.60;;;;;;;21.38;35.11;102160.72;5075038;28;20063;-59
2022/12/27 07:55:58;;;;;;;1.05;0.63;;;;;;;21.42;35.25;102172.66;5077142;28;20074;-59
2022/12/27 07:58:24;;;;;;;1.25;1.10;;;;;;;21.38;35.13;102170.50;5071233;28;20127;-59
2022/12/27 08:00:51;;;;;;;0.75;0.60;;;;;;;21.36;35.38;102178.59;5069743;28;20051;-59
2022/12/27 08:03:17;;;;;;;1.00;0.50;;;;;;;21.33;35.30;102178.91;5069799;28;20493;-59
2022/12/27 08:05:51;;;;;;;1.30;0.93;;;;;;;21.26;35.35;102174.41;5071363;28;20056;-59
2022/12/27 08:08:20;;;;;;;1.33;0.65;;;;;;;21.26;35.57;102183.19;5069103;28;21951;-59
2022/12/27 08:10:45;;;;;;;0.60;0.60;;;;;;;21.17;35.66;102186.72;5076564;28;20032;-59
2022/12/27 08:13:11;;;;;;;6.00;1.70;;;;;;;21.15;35.70;102178.09;5070097;28;20084;-59
2022/12/27 08:15:39;;;;;;;1.58;0.80;;;;;;;21.13;35.77;102186.19;5071395;28;20493;-59
2022/12/27 08:18:05;;;;;;;1.00;0.82;;;;;;;21.10;35.87;102183.03;5066472;28;20064;-59
2022/12/27 08:20:31;;;;;;;1.25;0.77;;;;;;;21.11;35.56;102188.19;5068971;28;20566;-59
2022/12/27 08:22:56;;;;;;;2.42;1.10;;;;;;;21.07;35.64;102202.72;5070735;28;20079;-59
2022/12/27 08:25:22;;;;;;;1.00;0.82;;;;;;;21.09;35.57;102203.41;5070813;28;20048;-59
2022/12/27 08:27:47;;;;;;;1.23;0.68;;;;;;;21.06;35.50;102197.56;5068175;28;20047;-58
2022/12/27 08:30:13;;;;;;;1.00;0.70;;;;;;;21.04;35.60;102186.31;5070333;28;20044;-59
2022/12/27 08:32:39;;;;;;;2.42;1.20;;;;;;;21.02;35.46;102197.06;5072941;28;20028;-59
2022/12/27 08:35:05;;;;;;;2.15;0.93;;;;;;;21.00;35.69;102195.53;5063574;28;20070;-59
2022/12/27 08:37:31;;;;;;;1.58;1.00;;;;;;;20.95;35.89;102195.16;5077575;28;20048;-59
2022/12/27 08:39:56;;;;;;;1.60;0.88;;;;;;;20.99;35.74;102202.66;5070263;28;20035;-59
2022/12/27 08:42:22;;;;;;;3.25;1.10;;;;;;;20.96;35.73;102212.72;5070030;28;20122;-59
2022/12/27 08:44:47;;;;;;;1.58;0.80;;;;;;;20.92;35.44;102220.16;5071463;28;20040;-59
2022/12/27 08:47:13;;;;;;;1.27;0.90;;;;;;;20.91;35.52;102213.19;5080934;28;20039;-59
2022/12/27 08:49:38;;;;;;;2.67;0.98;;;;;;;20.91;35.65;102209.72;5073918;28;21074;-59
2022/12/27 08:52:04;;;;;;;2.25;0.88;;;;;;;20.90;35.25;102214.16;5073861;28;20040;-59
2022/12/27 08:54:29;;;;;;;2.28;0.95;;;;;;;20.89;35.52;102227.56;5072790;28;20040;-59
2022/12/27 08:56:55;;;;;;;3.10;1.30;;;;;;;20.86;35.42;102235.81;5069056;28;20040;-58
2022/12/27 08:59:21;;;;;;;1.65;1.00;;;;;;;20.84;35.33;102221.91;5073054;28;20041;-59
2022/12/27 09:01:46;;;;;;;2.25;1.13;;;;;;;20.87;35.36;102224.25;5076542;28;20371;-59
2022/12/27 09:04:12;;;;;;;2.30;1.08;;;;;;;20.85;35.26;102229.69;5078328;28;20033;-59
2022/12/27 09:06:39;;;;;;;2.25;0.95;;;;;;;20.83;35.31;102239.63;5071898;28;20055;-58
2022/12/27 09:09:05;;;;;;;1.30;1.00;;;;;;;20.79;35.32;102247.00;5072864;28;20082;-59
2022/12/27 09:11:32;;;;;;;1.25;0.77;;;;;;;20.81;35.28;102249.50;5072682;28;20032;-59
2022/12/27 09:14:01;;;;;;;2.03;1.05;;;;;;;20.79;35.33;102246.16;5068608;28;20040;-59
2022/12/27 09:16:27;;;;;;;3.00;0.98;;;;;;;20.79;35.36;102246.16;5073305;28;20075;-58
2022/12/27 09:18:55;;;;;;;2.45;0.88;;;;;;;20.79;35.32;102246.16;5069391;28;20047;-59
2022/12/27 09:21:26;;;;;;;2.22;1.10;;;;;;;20.76;35.16;102255.25;5077375;28;20881;-59
2022/12/27 09:23:53;;;;;;;1.42;1.00;;;;;;;20.78;35.05;102255.09;5077050;28;20844;-59
2022/12/27 09:26:21;;;;;;;1.88;1.08;;;;;;;20.79;35.25;102262.88;5074078;28;20040;-59
2022/12/27 09:28:48;;;;;;;3.33;1.27;;;;;;;20.96;34.83;102253.28;5074154;28;20098;-59
2022/12/27 09:31:15;;;;;;;2.75;1.40;;;;;;;21.25;34.64;102260.16;5070935;28;20032;-59
2022/12/27 09:33:41;;;;;;;2.38;1.65;;;;;;;21.42;34.13;102254.00;5070413;28;20093;-59
2022/12/27 09:36:13;;;;;;;2.55;1.02;;;;;;;21.41;34.37;102244.38;5075179;28;20028;-59
2022/12/27 09:38:39;;;;;;;2.42;1.17;;;;;;;21.39;34.39;102247.19;5079585;28;20044;-59
2022/12/27 09:41:40;;;;;;;1.90;0.98;;;;;;;21.30;34.24;102236.69;5071909;28;20109;-59
2022/12/27 09:44:17;;;;;;;1.83;0.90;;;;;;;21.30;34.31;102248.09;5073901;28;20128;-59
2022/12/27 09:46:56;;;;;;;2.45;1.27;;;;;;;21.31;34.57;102254.22;5076215;28;20043;-59
2022/12/27 09:49:44;;;;;;;2.00;1.00;;;;;;;21.25;34.47;102246.91;5076902;28;20524;-59
2022/12/27 09:52:21;;;;;;;2.25;1.10;;;;;;;21.23;34.38;102252.34;5076229;28;20058;-59
2022/12/27 09:54:53;;;;;;;1.65;1.05;;;;;;;21.17;34.60;102247.63;5073792;28;20044;-59
2022/12/27 09:57:25;;;;;;;2.88;1.02;;;;;;;21.14;34.47;102250.59;5077316;28;20074;-59
2022/12/27 09:59:59;;;;;;;2.42;1.30;;;;;;;21.05;34.53;102256.84;5074521;28;20097;-59
2022/12/27 10:02:27;;;;;;;2.97;1.05;;;;;;;20.99;34.86;102252.97;5074975;28;20043;-59
2022/12/27 10:04:55;;;;;;;2.13;1.15;;;;;;;20.94;34.72;102257.06;5074832;28;20118;-59
2022/12/27 10:07:30;;;;;;;2.38;1.20;;;;;;;20.90;35.05;102263.66;5075113;28;20038;-59
2022/12/27 10:10:24;;;;;;;1.95;1.20;;;;;;;20.79;34.99;102264.69;5078726;28;20043;-59
2022/12/27 10:13:14;;;;;;;2.47;1.30;;;;;;;20.91;34.99;102270.59;5067623;28;20044;-59
2022/12/27 10:16:04;;;;;;;2.15;1.10;;;;;;;20.95;34.79;102264.03;5066671;28;20049;-59
2022/12/27 10:18:43;;;;;;;3.80;1.52;;;;;;;20.84;34.59;102262.44;5016719;28;20684;-63
2022/12/27 10:21:26;;;;;;;2.05;1.35;;;;;;;21.03;33.97;102259.63;5074536;28;20115;-63
2022/12/27 10:23:56;;;;;;;3.83;1.60;;;;;;;21.19;33.41;102261.59;5079000;28;20031;-63
2022/12/27 10:26:22;;;;;;;3.40;1.80;;;;;;;21.38;33.27;102265.91;5078572;28;20386;-63
2022/12/27 10:28:55;;;;;;;3.50;1.70;;;;;;;21.47;32.94;102266.75;5076204;28;20024;-63
2022/12/27 10:31:22;;;;;;;2.75;1.38;;;;;;;21.47;32.88;102269.41;5078763;28;20127;-60
2022/12/27 10:33:50;;;;;;;3.45;1.50;;;;;;;21.50;32.85;102259.31;5056451;28;20050;-63
2022/12/27 10:36:22;;;;;;;2.35;1.10;;;;;;;21.47;32.90;102264.94;5063115;28;20042;-61
2022/12/27 10:38:48;;;;;;;2.97;1.63;;;;;;;21.45;32.96;102268.75;5074625;28;20115;-64
2022/12/27 10:41:23;;;;;;;3.33;1.55;;;;;;;21.47;33.14;102269.41;5076318;28;20906;-66
2022/12/27 10:43:53;;;;;;;2.00;1.30;;;;;;;21.48;33.23;102271.91;5075189;28;20032;-64
2022/12/27 10:46:23;;;;;;;3.50;1.80;;;;;;;21.41;33.03;102269.06;5077030;28;20047;-66
2022/12/27 10:48:58;;;;;;;4.30;1.48;;;;;;;21.49;33.08;102270.91;5070211;28;20039;-66
2022/12/27 10:51:31;;;;;;;3.75;1.50;;;;;;;21.56;33.28;102276.44;5042924;28;20123;-65
2022/12/27 10:54:03;;;;;;;1.75;1.10;;;;;;;21.44;33.76;102278.50;5079655;28;20402;-66
2022/12/27 10:56:34;;;;;;;2.20;1.13;;;;;;;21.47;33.39;102291.44;5078103;28;20489;-65
2022/12/27 10:59:14;;;;;;;3.85;1.73;;;;;;;21.40;33.86;102290.41;5074006;28;20028;-66
2022/12/27 11:01:40;;;;;;;3.13;1.35;;;;;;;21.34;33.79;102281.25;5073183;28;20932;-66
2022/12/27 11:04:13;;;;;;;3.25;1.52;;;;;;;21.30;33.75;102279.06;5070091;28;20043;-65
2022/12/27 11:06:39;;;;;;;2.17;1.60;;;;;;;21.24;34.24;102275.22;5061928;28;21567;-66
2022/12/27 11:09:27;;;;;;;1.90;1.33;;;;;;;21.24;33.95;102271.72;5054071;28;20030;-66
2022/12/27 11:12:23;;;;;;;3.03;1.15;;;;;;;21.20;34.19;102276.50;5077071;28;20042;-66
2022/12/27 11:15:10;;;;;;;3.88;1.50;;;;;;;21.21;33.95;102278.16;5071610;28;20036;-66
2022/12/27 11:17:55;;;;;;;3.45;1.42;;;;;;;21.17;34.09;102271.47;5071665;28;20033;-66
2022/12/27 11:20:36;;;;;;;2.28;1.48;;;;;;;21.13;34.34;102278.06;5067660;28;20032;-66
2022/12/27 11:23:07;;;;;;;2.75;1.50;;;;;;;21.16;34.33;102287.53;5073077;28;20036;-66
2022/12/27 11:25:34;;;;;;;2.35;1.25;;;;;;;21.15;34.39;102288.50;5045724;28;20043;-77
2022/12/27 11:28:29;;;;;;;3.75;1.40;;;;;;;21.07;34.33;102284.81;5082670;28;20048;-78
2022/12/27 11:30:58;;;;;;;3.33;1.33;;;;;;;21.12;34.32;102295.78;5072293;28;20474;-76
2022/12/27 11:33:34;;;;;;;1.90;1.30;;;;;;;21.12;34.30;102297.59;5077778;28;20132;-77
2022/12/27 11:36:00;;;;;;;3.17;1.45;;;;;;;21.14;34.22;102290.34;5079930;28;20051;-72
2022/12/27 11:38:30;;;;;;;3.35;1.60;;;;;;;21.03;34.23;102296.72;5075995;28;20605;-73
2022/12/27 11:41:17;;;;;;;3.13;1.50;;;;;;;21.13;34.51;102286.03;5050000;28;20046;-64
2022/12/27 11:43:57;;;;;;;4.30;1.38;;;;;;;21.22;34.52;102289.59;5075466;28;20434;-63
2022/12/27 11:46:48;;;;;;;2.47;1.25;;;;;;;21.23;34.36;102284.13;5081491;28;20051;-63
2022/12/27 11:49:23;;;;;;;1.63;1.15;;;;;;;21.30;34.29;102281.72;5083492;28;20031;-63
2022/12/27 11:52:07;;;;;;;2.80;1.15;;;;;;;21.37;34.07;102280.97;5083194;28;20059;-64
2022/12/27 11:54:52;;;;;;;3.20;1.40;;;;;;;21.38;33.93;102277.31;5074343;28;20783;-63
2022/12/27 11:57:29;;;;;;;3.08;1.40;;;;;;;21.38;34.06;102273.84;5041331;28;20051;-64
2022/12/27 12:00:18;;;;;;;2.28;1.30;;;;;;;21.79;33.35;102269.63;5072641;28;20043;-64
2022/12/27 12:03:02;;;;;;;1.73;1.10;;;;;;;21.88;33.29;102267.81;5073129;28;20047;-63
2022/12/27 12:05:59;;;;;;;2.72;1.40;;;;;;;21.88;33.42;102260.69;5081277;28;20557;-62
2022/12/27 12:08:37;;;;;;;3.20;1.63;;;;;;;21.93;33.46;102261.06;5076566;28;20036;-66
2022/12/27 12:11:14;;;;;;;2.55;1.20;;;;;;;21.85;33.47;102253.06;5077108;28;20929;-64
2022/12/27 12:14:10;;;;;;;2.17;1.20;;;;;;;21.79;33.85;102251.06;5058520;28;20028;-63
2022/12/27 12:17:04;;;;;;;2.25;1.08;;;;;;;21.71;33.82;102253.66;5053511;28;20494;-63
2022/12/27 12:19:51;;;;;;;2.42;1.35;;;;;;;21.71;33.96;102251.81;5068870;28;20506;-63
2022/12/27 12:22:38;;;;;;;2.55;1.50;;;;;;;21.71;33.63;102248.34;5075400;28;20047;-63
2022/12/27 12:25:42;;;;;;;2.05;0.90;;;;;;;21.74;33.83;102242.75;5066548;28;21047;-62
2022/12/27 12:28:31;;;;;;;2.65;1.33;;;;;;;21.65;33.75;102241.03;5068966;27;20056;-63
2022/12/27 12:31:08;;;;;;;3.40;1.30;;;;;;;21.63;33.75;102233.25;5025608;28;20131;-65
2022/12/27 12:33:37;;;;;;;3.45;1.25;;;;;;;21.66;33.77;102232.91;5070286;28;20481;-66
2022/12/27 12:36:15;;;;;;;3.35;1.20;;;;;;;21.61;33.53;102229.09;5069311;28;20408;-66
2022/12/27 12:39:06;;;;;;;2.20;0.95;;;;;;;21.53;33.53;102216.59;5072972;28;20079;-66
2022/12/27 12:41:58;;;;;;;3.00;1.20;;;;;;;21.53;33.70;102232.50;5075161;28;20165;-65
2022/12/27 12:44:45;;;;;;;3.50;1.50;;;;;;;21.53;33.72;102232.50;5073949;28;20028;-66
2022/12/27 12:47:29;;;;;;;2.63;1.20;;;;;;;21.49;33.93;102231.16;5041704;28;20083;-64
2022/12/27 12:50:22;;;;;;;1.73;1.25;;;;;;;21.47;33.64;102232.31;5071345;28;20040;-61
2022/12/27 12:52:57;;;;;;;3.08;1.45;;;;;;;21.45;33.88;102221.03;5070176;28;20028;-61
2022/12/27 12:55:59;;;;;;;1.08;0.82;;;;;;;21.38;34.06;102226.16;5073389;28;20032;-61
2022/12/27 12:58:34;;;;;;;2.47;1.20;;;;;;;21.32;33.87;102211.69;5073237;28;20072;-63
2022/12/27 13:01:26;;;;;;;1.92;1.02;;;;;;;21.29;34.25;102212.00;5071891;28;20100;-61
2022/12/27 13:04:02;;;;;;;2.55;1.13;;;;;;;21.32;33.86;102216.97;5038638;28;20559;-61
2022/12/27 13:06:49;;;;;;;3.15;1.15;;;;;;;21.37;33.86;102206.78;5074792;28;20039;-60
2022/12/27 13:09:54;;;;;;;2.80;1.23;;;;;;;21.35;34.00;102203.41;5071019;28;20500;-61
2022/12/27 13:12:41;;;;;;;2.45;1.40;;;;;;;21.32;34.24;102202.91;5070812;28;20040;-61
2022/12/27 13:15:28;;;;;;;2.25;1.27;;;;;;;21.29;33.85;102192.63;5072276;28;20043;-60
2022/12/27 13:18:17;;;;;;;2.25;1.30;;;;;;;21.31;33.87;102191.47;5055234;28;20051;-61
2022/12/27 13:21:15;;;;;;;1.55;1.15;;;;;;;21.29;33.96;102185.50;5070832;28;20074;-60
2022/12/27 13:24:04;;;;;;;3.28;1.25;;;;;;;21.23;34.06;102185.28;5063939;28;20047;-60
2022/12/27 13:26:53;;;;;;;2.55;1.20;;;;;;;21.19;34.56;102176.00;5068907;28;20032;-60
2022/12/27 13:29:37;;;;;;;2.17;1.40;;;;;;;21.19;34.37;102176.81;5072488;28;20048;-61